sensor_id;sensor_type;location;lat;lon;timestamp;temperature;humidity
24049;DHT22;12250;50.956;4.746;2023-05-09T00:00:43;15.30;99.90
24049;DHT22;12250;50.956;4.746;2023-05-09T00:03:09;15.20;99.90
24049;DHT22;12250;50.956;4.746;2023-05-09T00:05:37;15.20;99.90
24049;DHT22;12250;50.956;4.746;2023-05-09T00:08:03;15.30;99.90
24049;DHT22;12250;50.956;4.746;2023-05-09T00:10:29;15.30;99.90
24049;DHT22;12250;50.956;4.746;2023-05-09T00:12:55;15.30;99.90
24049;DHT22;12250;50.956;4.746;2023-05-09T00:15:21;15.20;99.90
24049;DHT22;12250;50.956;4.746;2023-05-09T00:17:48;15.20;99.90
24049;DHT22;12250;50.956;4.746;2023-05-09T00:20:14;15.20;99.90
24049;DHT22;12250;50.956;4.746;2023-05-09T00:22:41;15.20;99.90
24049;DHT22;12250;50.956;4.746;2023-05-09T00:25:08;15.20;99.90
24049;DHT22;12250;50.956;4.746;2023-05-09T00:27:34;15.20;99.90
24049;DHT22;12250;50.956;4.746;2023-05-09T00:30:00;15.20;99.90
24049;DHT22;12250;50.956;4.746;2023-05-09T00:32:26;15.20;99.90
24049;DHT22;12250;50.956;4.746;2023-05-09T00:34:53;15.20;99.90
24049;DHT22;12250;50.956;4.746;2023-05-09T00:37:19;15.10;99.90
24049;DHT22;12250;50.956;4.746;2023-05-09T00:39:48;15.20;99.90
24049;DHT22;12250;50.956;4.746;2023-05-09T00:42:14;15.10;99.90
24049;DHT22;12250;50.956;4.746;2023-05-09T00:44:41;15.20;99.90
24049;DHT22;12250;50.956;4.746;2023-05-09T00:47:06;15.10;99.90
24049;DHT22;12250;50.956;4.746;2023-05-09T00:49:32;15.20;99.90
24049;DHT22;12250;50.956;4.746;2023-05-09T00:51:58;15.10;99.90
24049;DHT22;12250;50.956;4.746;2023-05-09T00:54:25;15.10;99.90
24049;DHT22;12250;50.956;4.746;2023-05-09T00:56:51;15.10;99.90
24049;DHT22;12250;50.956;4.746;2023-05-09T00:59:17;15.10;99.90
24049;DHT22;12250;50.956;4.746;2023-05-09T01:01:44;15.10;99.90
24049;DHT22;12250;50.956;4.746;2023-05-09T01:04:10;15.00;99.90
24049;DHT22;12250;50.956;4.746;2023-05-09T01:09:57;14.90;99.90
24049;DHT22;12250;50.956;4.746;2023-05-09T01:17:58;14.80;99.90
24049;DHT22;12250;50.956;4.746;2023-05-09T01:20:37;14.70;99.90
24049;DHT22;12250;50.956;4.746;2023-05-09T01:26:04;14.80;99.90
24049;DHT22;12250;50.956;4.746;2023-05-09T01:31:37;14.80;99.90
24049;DHT22;12250;50.956;4.746;2023-05-09T01:34:04;14.80;99.90
24049;DHT22;12250;50.956;4.746;2023-05-09T01:36:31;14.90;99.90
24049;DHT22;12250;50.956;4.746;2023-05-09T01:39:00;14.90;99.90
24049;DHT22;12250;50.956;4.746;2023-05-09T01:41:29;14.90;99.90
24049;DHT22;12250;50.956;4.746;2023-05-09T01:43:58;14.90;99.90
24049;DHT22;12250;50.956;4.746;2023-05-09T01:46:26;14.90;99.90
24049;DHT22;12250;50.956;4.746;2023-05-09T01:48:53;14.90;99.90
24049;DHT22;12250;50.956;4.746;2023-05-09T01:51:20;14.90;99.90
24049;DHT22;12250;50.956;4.746;2023-05-09T01:53:47;14.90;99.90
24049;DHT22;12250;50.956;4.746;2023-05-09T01:56:15;14.90;99.90
24049;DHT22;12250;50.956;4.746;2023-05-09T01:58:41;14.90;99.90
24049;DHT22;12250;50.956;4.746;2023-05-09T02:01:09;14.90;99.90
24049;DHT22;12250;50.956;4.746;2023-05-09T02:03:37;14.90;99.90
24049;DHT22;12250;50.956;4.746;2023-05-09T02:06:04;14.90;99.90
24049;DHT22;12250;50.956;4.746;2023-05-09T02:08:30;14.90;99.90
24049;DHT22;12250;50.956;4.746;2023-05-09T02:10:57;14.90;99.90
24049;DHT22;12250;50.956;4.746;2023-05-09T02:13:24;14.90;99.90
24049;DHT22;12250;50.956;4.746;2023-05-09T02:15:50;14.90;99.90
24049;DHT22;12250;50.956;4.746;2023-05-09T02:18:16;14.90;99.90
24049;DHT22;12250;50.956;4.746;2023-05-09T02:20:42;14.90;99.90
24049;DHT22;12250;50.956;4.746;2023-05-09T02:23:07;14.90;99.90
24049;DHT22;12250;50.956;4.746;2023-05-09T02:25:33;14.80;99.90
24049;DHT22;12250;50.956;4.746;2023-05-09T02:27:59;14.80;99.90
24049;DHT22;12250;50.956;4.746;2023-05-09T02:30:26;14.80;99.90
24049;DHT22;12250;50.956;4.746;2023-05-09T02:33:03;14.80;99.90
24049;DHT22;12250;50.956;4.746;2023-05-09T02:35:30;14.80;99.90
24049;DHT22;12250;50.956;4.746;2023-05-09T02:37:58;14.80;99.90
24049;DHT22;12250;50.956;4.746;2023-05-09T02:40:25;14.80;99.90
24049;DHT22;12250;50.956;4.746;2023-05-09T02:42:52;14.80;99.90
24049;DHT22;12250;50.956;4.746;2023-05-09T02:45:18;14.80;99.90
24049;DHT22;12250;50.956;4.746;2023-05-09T02:47:43;14.70;99.90
24049;DHT22;12250;50.956;4.746;2023-05-09T02:50:09;14.80;99.90
24049;DHT22;12250;50.956;4.746;2023-05-09T02:52:35;14.70;99.90
24049;DHT22;12250;50.956;4.746;2023-05-09T02:55:02;14.70;99.90
24049;DHT22;12250;50.956;4.746;2023-05-09T02:57:28;14.80;99.90
24049;DHT22;12250;50.956;4.746;2023-05-09T02:59:54;14.70;99.90
24049;DHT22;12250;50.956;4.746;2023-05-09T03:02:20;14.80;99.90
24049;DHT22;12250;50.956;4.746;2023-05-09T03:04:45;14.80;99.90
24049;DHT22;12250;50.956;4.746;2023-05-09T03:07:11;14.80;99.90
24049;DHT22;12250;50.956;4.746;2023-05-09T03:09:37;14.80;99.90
24049;DHT22;12250;50.956;4.746;2023-05-09T03:12:03;14.80;99.90
24049;DHT22;12250;50.956;4.746;2023-05-09T03:14:28;14.80;99.90
24049;DHT22;12250;50.956;4.746;2023-05-09T03:16:54;14.90;99.90
24049;DHT22;12250;50.956;4.746;2023-05-09T03:19:20;14.90;99.90
24049;DHT22;12250;50.956;4.746;2023-05-09T03:21:45;14.90;99.90
24049;DHT22;12250;50.956;4.746;2023-05-09T03:24:11;14.90;99.90
24049;DHT22;12250;50.956;4.746;2023-05-09T03:26:37;15.00;99.90
24049;DHT22;12250;50.956;4.746;2023-05-09T03:29:03;15.00;99.90
24049;DHT22;12250;50.956;4.746;2023-05-09T03:31:29;15.00;99.90
24049;DHT22;12250;50.956;4.746;2023-05-09T03:33:54;15.00;99.90
24049;DHT22;12250;50.956;4.746;2023-05-09T03:36:20;15.00;99.90
24049;DHT22;12250;50.956;4.746;2023-05-09T03:38:46;15.10;99.90
24049;DHT22;12250;50.956;4.746;2023-05-09T03:41:14;15.10;99.90
24049;DHT22;12250;50.956;4.746;2023-05-09T03:43:40;15.10;99.90
24049;DHT22;12250;50.956;4.746;2023-05-09T03:46:06;15.10;99.90
24049;DHT22;12250;50.956;4.746;2023-05-09T03:48:32;15.10;99.90
24049;DHT22;12250;50.956;4.746;2023-05-09T03:50:58;15.10;99.90
24049;DHT22;12250;50.956;4.746;2023-05-09T03:53:23;15.10;99.90
24049;DHT22;12250;50.956;4.746;2023-05-09T03:55:49;15.10;99.90
24049;DHT22;12250;50.956;4.746;2023-05-09T03:58:14;15.10;99.90
24049;DHT22;12250;50.956;4.746;2023-05-09T04:00:41;15.10;99.90
24049;DHT22;12250;50.956;4.746;2023-05-09T04:03:06;15.10;99.90
24049;DHT22;12250;50.956;4.746;2023-05-09T04:05:32;15.20;99.90
24049;DHT22;12250;50.956;4.746;2023-05-09T04:07:59;15.20;99.90
24049;DHT22;12250;50.956;4.746;2023-05-09T04:10:25;15.20;99.90
24049;DHT22;12250;50.956;4.746;2023-05-09T04:12:50;15.20;99.90
24049;DHT22;12250;50.956;4.746;2023-05-09T04:15:16;15.20;99.90
24049;DHT22;12250;50.956;4.746;2023-05-09T04:17:42;15.20;99.90
24049;DHT22;12250;50.956;4.746;2023-05-09T04:20:09;15.20;99.90
24049;DHT22;12250;50.956;4.746;2023-05-09T04:22:35;15.30;99.90
24049;DHT22;12250;50.956;4.746;2023-05-09T04:25:01;15.30;99.90
24049;DHT22;12250;50.956;4.746;2023-05-09T04:27:28;15.30;99.90
24049;DHT22;12250;50.956;4.746;2023-05-09T04:29:54;15.40;99.90
24049;DHT22;12250;50.956;4.746;2023-05-09T04:32:20;15.50;99.90
24049;DHT22;12250;50.956;4.746;2023-05-09T04:34:48;15.50;99.90
24049;DHT22;12250;50.956;4.746;2023-05-09T04:37:14;15.60;99.90
24049;DHT22;12250;50.956;4.746;2023-05-09T04:39:39;15.60;99.90
24049;DHT22;12250;50.956;4.746;2023-05-09T04:42:05;15.60;99.90
24049;DHT22;12250;50.956;4.746;2023-05-09T04:44:31;15.70;99.90
24049;DHT22;12250;50.956;4.746;2023-05-09T04:46:57;15.70;99.90
24049;DHT22;12250;50.956;4.746;2023-05-09T04:49:23;15.80;99.90
24049;DHT22;12250;50.956;4.746;2023-05-09T04:51:51;15.80;99.90
24049;DHT22;12250;50.956;4.746;2023-05-09T04:54:16;15.80;99.90
24049;DHT22;12250;50.956;4.746;2023-05-09T04:56:42;15.80;99.90
24049;DHT22;12250;50.956;4.746;2023-05-09T04:59:07;15.80;99.90
24049;DHT22;12250;50.956;4.746;2023-05-09T05:01:33;15.90;99.90
24049;DHT22;12250;50.956;4.746;2023-05-09T05:03:59;15.90;99.90
24049;DHT22;12250;50.956;4.746;2023-05-09T05:06:25;15.90;99.90
24049;DHT22;12250;50.956;4.746;2023-05-09T05:08:50;15.90;99.90
24049;DHT22;12250;50.956;4.746;2023-05-09T05:11:16;15.90;99.90
24049;DHT22;12250;50.956;4.746;2023-05-09T05:13:46;15.90;99.90
24049;DHT22;12250;50.956;4.746;2023-05-09T05:16:11;16.00;99.90
24049;DHT22;12250;50.956;4.746;2023-05-09T05:18:37;16.00;99.90
24049;DHT22;12250;50.956;4.746;2023-05-09T05:21:03;16.00;99.90
24049;DHT22;12250;50.956;4.746;2023-05-09T05:23:28;16.10;99.90
24049;DHT22;12250;50.956;4.746;2023-05-09T05:25:54;16.10;99.90
24049;DHT22;12250;50.956;4.746;2023-05-09T05:28:20;16.20;99.90
24049;DHT22;12250;50.956;4.746;2023-05-09T05:30:45;16.20;99.90
24049;DHT22;12250;50.956;4.746;2023-05-09T05:33:11;16.10;99.90
24049;DHT22;12250;50.956;4.746;2023-05-09T05:35:37;16.00;99.90
24049;DHT22;12250;50.956;4.746;2023-05-09T05:38:02;15.90;99.90
24049;DHT22;12250;50.956;4.746;2023-05-09T05:40:28;15.80;99.90
24049;DHT22;12250;50.956;4.746;2023-05-09T05:42:54;15.80;99.90
24049;DHT22;12250;50.956;4.746;2023-05-09T05:45:20;15.80;99.90
24049;DHT22;12250;50.956;4.746;2023-05-09T05:47:46;15.70;99.90
24049;DHT22;12250;50.956;4.746;2023-05-09T05:50:11;15.70;99.90
24049;DHT22;12250;50.956;4.746;2023-05-09T05:52:40;15.60;99.90
24049;DHT22;12250;50.956;4.746;2023-05-09T05:55:06;15.70;99.90
24049;DHT22;12250;50.956;4.746;2023-05-09T05:57:32;15.60;99.90
24049;DHT22;12250;50.956;4.746;2023-05-09T05:59:59;15.50;99.90
24049;DHT22;12250;50.956;4.746;2023-05-09T06:02:25;15.60;99.90
24049;DHT22;12250;50.956;4.746;2023-05-09T06:04:51;15.60;99.90
24049;DHT22;12250;50.956;4.746;2023-05-09T06:07:17;15.60;99.90
24049;DHT22;12250;50.956;4.746;2023-05-09T06:09:42;15.50;99.90
24049;DHT22;12250;50.956;4.746;2023-05-09T06:12:08;15.40;99.90
24049;DHT22;12250;50.956;4.746;2023-05-09T06:14:34;15.40;99.90
24049;DHT22;12250;50.956;4.746;2023-05-09T06:16:59;15.40;99.90
24049;DHT22;12250;50.956;4.746;2023-05-09T06:19:25;15.30;99.90
24049;DHT22;12250;50.956;4.746;2023-05-09T06:21:51;15.20;99.90
24049;DHT22;12250;50.956;4.746;2023-05-09T06:24:17;15.20;99.90
24049;DHT22;12250;50.956;4.746;2023-05-09T06:26:42;15.30;99.90
24049;DHT22;12250;50.956;4.746;2023-05-09T06:29:08;15.30;99.90
24049;DHT22;12250;50.956;4.746;2023-05-09T06:31:35;15.40;99.90
24049;DHT22;12250;50.956;4.746;2023-05-09T06:34:03;15.40;99.90
24049;DHT22;12250;50.956;4.746;2023-05-09T06:36:29;15.50;99.90
24049;DHT22;12250;50.956;4.746;2023-05-09T06:38:56;15.60;99.90
24049;DHT22;12250;50.956;4.746;2023-05-09T06:41:23;15.60;99.90
24049;DHT22;12250;50.956;4.746;2023-05-09T06:43:48;15.60;99.90
24049;DHT22;12250;50.956;4.746;2023-05-09T06:46:14;15.70;99.90
24049;DHT22;12250;50.956;4.746;2023-05-09T06:48:40;15.70;99.90
24049;DHT22;12250;50.956;4.746;2023-05-09T06:51:05;15.80;99.90
24049;DHT22;12250;50.956;4.746;2023-05-09T06:53:31;16.00;99.90
24049;DHT22;12250;50.956;4.746;2023-05-09T06:55:57;16.10;99.90
24049;DHT22;12250;50.956;4.746;2023-05-09T06:58:23;16.20;99.90
24049;DHT22;12250;50.956;4.746;2023-05-09T07:00:49;16.30;99.90
24049;DHT22;12250;50.956;4.746;2023-05-09T07:03:15;16.40;99.90
24049;DHT22;12250;50.956;4.746;2023-05-09T07:05:41;16.60;99.90
24049;DHT22;12250;50.956;4.746;2023-05-09T07:08:07;16.60;99.90
24049;DHT22;12250;50.956;4.746;2023-05-09T07:10:32;16.60;99.90
24049;DHT22;12250;50.956;4.746;2023-05-09T07:12:58;16.70;99.90
24049;DHT22;12250;50.956;4.746;2023-05-09T07:15:24;16.80;99.90
24049;DHT22;12250;50.956;4.746;2023-05-09T07:17:49;16.90;99.90
24049;DHT22;12250;50.956;4.746;2023-05-09T07:20:15;16.80;99.90
24049;DHT22;12250;50.956;4.746;2023-05-09T07:22:41;16.80;99.90
24049;DHT22;12250;50.956;4.746;2023-05-09T07:25:07;16.90;99.90
24049;DHT22;12250;50.956;4.746;2023-05-09T07:27:33;16.70;99.90
24049;DHT22;12250;50.956;4.746;2023-05-09T07:29:59;16.50;99.90
24049;DHT22;12250;50.956;4.746;2023-05-09T07:32:25;16.50;99.90
24049;DHT22;12250;50.956;4.746;2023-05-09T07:34:53;16.60;99.90
24049;DHT22;12250;50.956;4.746;2023-05-09T07:37:19;16.60;99.90
24049;DHT22;12250;50.956;4.746;2023-05-09T07:39:45;16.30;99.90
24049;DHT22;12250;50.956;4.746;2023-05-09T07:42:12;16.30;99.90
24049;DHT22;12250;50.956;4.746;2023-05-09T07:44:38;16.30;99.90
24049;DHT22;12250;50.956;4.746;2023-05-09T07:47:04;16.30;99.90
24049;DHT22;12250;50.956;4.746;2023-05-09T07:49:30;16.40;99.90
24049;DHT22;12250;50.956;4.746;2023-05-09T07:51:56;16.70;99.90
24049;DHT22;12250;50.956;4.746;2023-05-09T07:54:22;16.60;99.90
24049;DHT22;12250;50.956;4.746;2023-05-09T07:56:48;16.60;99.90
24049;DHT22;12250;50.956;4.746;2023-05-09T07:59:15;16.60;99.90
24049;DHT22;12250;50.956;4.746;2023-05-09T08:01:41;16.70;99.90
24049;DHT22;12250;50.956;4.746;2023-05-09T08:04:07;16.70;99.90
24049;DHT22;12250;50.956;4.746;2023-05-09T08:06:34;16.50;99.90
24049;DHT22;12250;50.956;4.746;2023-05-09T08:09:00;16.50;99.90
24049;DHT22;12250;50.956;4.746;2023-05-09T08:11:26;16.60;99.90
24049;DHT22;12250;50.956;4.746;2023-05-09T08:13:52;16.60;99.90
24049;DHT22;12250;50.956;4.746;2023-05-09T08:16:18;16.70;99.90
24049;DHT22;12250;50.956;4.746;2023-05-09T08:18:45;16.70;99.90
24049;DHT22;12250;50.956;4.746;2023-05-09T08:21:10;16.70;99.90
24049;DHT22;12250;50.956;4.746;2023-05-09T08:23:36;16.70;99.90
24049;DHT22;12250;50.956;4.746;2023-05-09T08:26:02;16.80;99.90
24049;DHT22;12250;50.956;4.746;2023-05-09T08:28:28;16.80;99.90
24049;DHT22;12250;50.956;4.746;2023-05-09T08:30:54;16.90;99.90
24049;DHT22;12250;50.956;4.746;2023-05-09T08:33:21;16.80;99.90
24049;DHT22;12250;50.956;4.746;2023-05-09T08:35:50;16.60;99.90
24049;DHT22;12250;50.956;4.746;2023-05-09T08:38:16;16.50;99.90
24049;DHT22;12250;50.956;4.746;2023-05-09T08:40:42;16.50;99.90
24049;DHT22;12250;50.956;4.746;2023-05-09T08:43:08;16.50;99.90
24049;DHT22;12250;50.956;4.746;2023-05-09T08:45:44;16.50;99.90
24049;DHT22;12250;50.956;4.746;2023-05-09T08:48:14;16.50;99.90
24049;DHT22;12250;50.956;4.746;2023-05-09T08:50:40;16.50;99.90
24049;DHT22;12250;50.956;4.746;2023-05-09T08:53:07;16.60;99.90
24049;DHT22;12250;50.956;4.746;2023-05-09T08:55:33;16.70;99.90
24049;DHT22;12250;50.956;4.746;2023-05-09T08:57:58;16.80;99.90
24049;DHT22;12250;50.956;4.746;2023-05-09T09:00:25;16.90;99.90
24049;DHT22;12250;50.956;4.746;2023-05-09T09:02:52;16.90;99.90
24049;DHT22;12250;50.956;4.746;2023-05-09T09:05:18;16.80;99.90
24049;DHT22;12250;50.956;4.746;2023-05-09T09:07:45;16.70;99.90
24049;DHT22;12250;50.956;4.746;2023-05-09T09:10:11;16.70;99.90
24049;DHT22;12250;50.956;4.746;2023-05-09T09:12:38;16.60;99.90
24049;DHT22;12250;50.956;4.746;2023-05-09T09:15:06;16.60;99.90
24049;DHT22;12250;50.956;4.746;2023-05-09T09:17:36;16.60;99.90
24049;DHT22;12250;50.956;4.746;2023-05-09T09:20:05;16.60;99.90
24049;DHT22;12250;50.956;4.746;2023-05-09T09:22:34;16.60;99.90
24049;DHT22;12250;50.956;4.746;2023-05-09T09:25:00;16.50;99.90
24049;DHT22;12250;50.956;4.746;2023-05-09T09:27:27;16.50;99.90
24049;DHT22;12250;50.956;4.746;2023-05-09T09:29:53;16.60;99.90
24049;DHT22;12250;50.956;4.746;2023-05-09T09:32:18;16.60;99.90
24049;DHT22;12250;50.956;4.746;2023-05-09T09:34:48;16.60;99.90
24049;DHT22;12250;50.956;4.746;2023-05-09T09:37:21;16.50;99.90
24049;DHT22;12250;50.956;4.746;2023-05-09T09:39:56;16.40;99.90
24049;DHT22;12250;50.956;4.746;2023-05-09T09:42:22;16.50;99.90
24049;DHT22;12250;50.956;4.746;2023-05-09T09:45:12;16.50;99.90
24049;DHT22;12250;50.956;4.746;2023-05-09T09:47:39;16.50;99.90
24049;DHT22;12250;50.956;4.746;2023-05-09T09:50:10;16.40;99.90
24049;DHT22;12250;50.956;4.746;2023-05-09T09:52:36;16.50;99.90
24049;DHT22;12250;50.956;4.746;2023-05-09T09:55:06;16.50;99.90
24049;DHT22;12250;50.956;4.746;2023-05-09T09:57:36;16.20;99.90
24049;DHT22;12250;50.956;4.746;2023-05-09T10:00:03;16.20;99.90
24049;DHT22;12250;50.956;4.746;2023-05-09T10:02:30;16.00;99.90
24049;DHT22;12250;50.956;4.746;2023-05-09T10:04:56;16.10;99.90
24049;DHT22;12250;50.956;4.746;2023-05-09T10:07:22;16.30;99.90
24049;DHT22;12250;50.956;4.746;2023-05-09T10:09:48;16.30;99.90
24049;DHT22;12250;50.956;4.746;2023-05-09T10:12:14;16.30;99.90
24049;DHT22;12250;50.956;4.746;2023-05-09T10:14:44;16.20;99.90
24049;DHT22;12250;50.956;4.746;2023-05-09T10:17:13;16.30;99.90
24049;DHT22;12250;50.956;4.746;2023-05-09T10:19:43;16.40;99.90
24049;DHT22;12250;50.956;4.746;2023-05-09T10:22:11;16.40;99.90
24049;DHT22;12250;50.956;4.746;2023-05-09T10:24:40;16.30;99.90
24049;DHT22;12250;50.956;4.746;2023-05-09T10:27:09;16.30;99.90
24049;DHT22;12250;50.956;4.746;2023-05-09T10:29:44;16.20;99.90
24049;DHT22;12250;50.956;4.746;2023-05-09T10:32:23;16.10;99.90
24049;DHT22;12250;50.956;4.746;2023-05-09T10:34:53;16.20;99.90
24049;DHT22;12250;50.956;4.746;2023-05-09T10:37:24;16.20;99.90
24049;DHT22;12250;50.956;4.746;2023-05-09T10:39:50;16.30;99.90
24049;DHT22;12250;50.956;4.746;2023-05-09T10:42:21;16.50;99.90
24049;DHT22;12250;50.956;4.746;2023-05-09T10:44:48;16.50;99.90
24049;DHT22;12250;50.956;4.746;2023-05-09T10:47:14;16.50;99.90
24049;DHT22;12250;50.956;4.746;2023-05-09T10:49:42;16.40;99.90
24049;DHT22;12250;50.956;4.746;2023-05-09T10:52:08;16.40;99.90
24049;DHT22;12250;50.956;4.746;2023-05-09T10:54:35;16.40;99.90
24049;DHT22;12250;50.956;4.746;2023-05-09T10:57:02;16.40;99.90
24049;DHT22;12250;50.956;4.746;2023-05-09T10:59:41;16.50;99.90
24049;DHT22;12250;50.956;4.746;2023-05-09T11:02:13;16.50;99.90
24049;DHT22;12250;50.956;4.746;2023-05-09T11:04:39;16.30;99.90
24049;DHT22;12250;50.956;4.746;2023-05-09T11:07:25;16.10;99.90
24049;DHT22;12250;50.956;4.746;2023-05-09T11:09:52;16.00;99.90
24049;DHT22;12250;50.956;4.746;2023-05-09T11:12:31;15.90;99.90
24049;DHT22;12250;50.956;4.746;2023-05-09T11:15:04;15.90;99.90
24049;DHT22;12250;50.956;4.746;2023-05-09T11:17:30;16.00;99.90
24049;DHT22;12250;50.956;4.746;2023-05-09T11:20:04;16.20;99.90
24049;DHT22;12250;50.956;4.746;2023-05-09T11:22:41;16.20;99.90
24049;DHT22;12250;50.956;4.746;2023-05-09T11:25:08;16.30;99.90
24049;DHT22;12250;50.956;4.746;2023-05-09T11:27:45;16.20;99.90
24049;DHT22;12250;50.956;4.746;2023-05-09T11:30:13;16.00;99.90
24049;DHT22;12250;50.956;4.746;2023-05-09T11:32:50;16.10;99.90
24049;DHT22;12250;50.956;4.746;2023-05-09T11:35:18;16.30;99.90
24049;DHT22;12250;50.956;4.746;2023-05-09T11:37:57;16.30;99.90
24049;DHT22;12250;50.956;4.746;2023-05-09T11:40:25;16.10;99.90
24049;DHT22;12250;50.956;4.746;2023-05-09T11:42:53;16.10;99.90
24049;DHT22;12250;50.956;4.746;2023-05-09T11:45:23;16.10;99.90
24049;DHT22;12250;50.956;4.746;2023-05-09T11:47:50;16.30;99.90
24049;DHT22;12250;50.956;4.746;2023-05-09T11:50:17;16.40;99.90
24049;DHT22;12250;50.956;4.746;2023-05-09T11:52:46;16.50;99.90
24049;DHT22;12250;50.956;4.746;2023-05-09T11:55:13;16.20;99.90
24049;DHT22;12250;50.956;4.746;2023-05-09T11:57:41;16.30;99.90
24049;DHT22;12250;50.956;4.746;2023-05-09T12:00:09;16.60;99.90
24049;DHT22;12250;50.956;4.746;2023-05-09T12:02:36;16.70;99.90
24049;DHT22;12250;50.956;4.746;2023-05-09T12:05:17;16.80;99.90
24049;DHT22;12250;50.956;4.746;2023-05-09T12:07:44;16.90;99.90
24049;DHT22;12250;50.956;4.746;2023-05-09T12:10:14;16.90;99.90
24049;DHT22;12250;50.956;4.746;2023-05-09T12:12:45;16.70;99.90
24049;DHT22;12250;50.956;4.746;2023-05-09T12:15:12;16.70;99.90
24049;DHT22;12250;50.956;4.746;2023-05-09T12:17:39;16.60;99.90
24049;DHT22;12250;50.956;4.746;2023-05-09T12:20:05;16.60;99.90
24049;DHT22;12250;50.956;4.746;2023-05-09T12:22:32;16.50;99.90
24049;DHT22;12250;50.956;4.746;2023-05-09T12:24:59;16.50;99.90
24049;DHT22;12250;50.956;4.746;2023-05-09T12:27:27;16.30;99.90
24049;DHT22;12250;50.956;4.746;2023-05-09T12:29:53;16.30;99.90
24049;DHT22;12250;50.956;4.746;2023-05-09T12:32:20;16.20;99.90
24049;DHT22;12250;50.956;4.746;2023-05-09T12:34:45;16.30;99.90
24049;DHT22;12250;50.956;4.746;2023-05-09T12:37:19;16.40;99.90
24049;DHT22;12250;50.956;4.746;2023-05-09T12:40:07;16.30;99.90
24049;DHT22;12250;50.956;4.746;2023-05-09T12:42:34;16.30;99.90
24049;DHT22;12250;50.956;4.746;2023-05-09T12:45:02;16.40;99.90
24049;DHT22;12250;50.956;4.746;2023-05-09T12:47:29;16.50;99.90
24049;DHT22;12250;50.956;4.746;2023-05-09T12:50:03;16.50;99.90
24049;DHT22;12250;50.956;4.746;2023-05-09T12:52:37;16.50;99.90
24049;DHT22;12250;50.956;4.746;2023-05-09T12:55:11;16.40;99.90
24049;DHT22;12250;50.956;4.746;2023-05-09T12:57:38;16.20;99.90
24049;DHT22;12250;50.956;4.746;2023-05-09T13:00:06;16.20;99.90
24049;DHT22;12250;50.956;4.746;2023-05-09T13:02:38;16.10;99.90
24049;DHT22;12250;50.956;4.746;2023-05-09T13:05:12;16.10;99.90
24049;DHT22;12250;50.956;4.746;2023-05-09T13:10:16;16.10;99.90
24049;DHT22;12250;50.956;4.746;2023-05-09T13:12:49;16.20;99.90
24049;DHT22;12250;50.956;4.746;2023-05-09T13:15:16;16.30;99.90
24049;DHT22;12250;50.956;4.746;2023-05-09T13:17:47;16.30;99.90
24049;DHT22;12250;50.956;4.746;2023-05-09T13:20:13;16.30;99.90
24049;DHT22;12250;50.956;4.746;2023-05-09T13:22:39;16.40;99.90
24049;DHT22;12250;50.956;4.746;2023-05-09T13:25:05;16.40;99.90
24049;DHT22;12250;50.956;4.746;2023-05-09T13:27:33;16.40;99.90
24049;DHT22;12250;50.956;4.746;2023-05-09T13:29:59;16.50;99.90
24049;DHT22;12250;50.956;4.746;2023-05-09T13:32:24;16.40;99.90
24049;DHT22;12250;50.956;4.746;2023-05-09T13:34:51;16.40;99.90
24049;DHT22;12250;50.956;4.746;2023-05-09T13:37:17;16.30;99.90
24049;DHT22;12250;50.956;4.746;2023-05-09T13:39:43;16.40;99.90
24049;DHT22;12250;50.956;4.746;2023-05-09T13:42:08;16.50;99.90
24049;DHT22;12250;50.956;4.746;2023-05-09T13:44:34;16.40;99.90
24049;DHT22;12250;50.956;4.746;2023-05-09T13:47:00;16.30;99.90
24049;DHT22;12250;50.956;4.746;2023-05-09T13:49:26;16.10;99.90
24049;DHT22;12250;50.956;4.746;2023-05-09T13:51:53;16.00;99.90
24049;DHT22;12250;50.956;4.746;2023-05-09T13:54:19;16.10;99.90
24049;DHT22;12250;50.956;4.746;2023-05-09T13:56:50;16.20;99.90
24049;DHT22;12250;50.956;4.746;2023-05-09T13:59:16;16.30;99.90
24049;DHT22;12250;50.956;4.746;2023-05-09T14:01:42;16.40;99.90
24049;DHT22;12250;50.956;4.746;2023-05-09T14:04:07;16.40;99.90
24049;DHT22;12250;50.956;4.746;2023-05-09T14:06:33;16.40;99.90
24049;DHT22;12250;50.956;4.746;2023-05-09T14:08:59;16.30;99.90
24049;DHT22;12250;50.956;4.746;2023-05-09T14:11:24;16.20;99.90
24049;DHT22;12250;50.956;4.746;2023-05-09T14:13:51;16.30;99.90
24049;DHT22;12250;50.956;4.746;2023-05-09T14:16:18;16.40;99.90
24049;DHT22;12250;50.956;4.746;2023-05-09T14:18:43;16.40;99.90
24049;DHT22;12250;50.956;4.746;2023-05-09T14:21:09;16.40;99.90
24049;DHT22;12250;50.956;4.746;2023-05-09T14:23:35;16.40;99.90
24049;DHT22;12250;50.956;4.746;2023-05-09T14:26:00;16.40;99.90
24049;DHT22;12250;50.956;4.746;2023-05-09T14:28:26;16.40;99.90
24049;DHT22;12250;50.956;4.746;2023-05-09T14:30:52;16.30;99.90
24049;DHT22;12250;50.956;4.746;2023-05-09T14:33:18;16.20;99.90
24049;DHT22;12250;50.956;4.746;2023-05-09T14:35:44;16.20;99.90
24049;DHT22;12250;50.956;4.746;2023-05-09T14:38:09;16.20;99.90
24049;DHT22;12250;50.956;4.746;2023-05-09T14:40:37;16.20;99.90
24049;DHT22;12250;50.956;4.746;2023-05-09T14:43:02;16.20;99.90
24049;DHT22;12250;50.956;4.746;2023-05-09T14:45:28;16.10;99.90
24049;DHT22;12250;50.956;4.746;2023-05-09T14:47:54;16.00;99.90
24049;DHT22;12250;50.956;4.746;2023-05-09T14:50:20;15.80;99.90
24049;DHT22;12250;50.956;4.746;2023-05-09T14:52:47;15.70;99.90
24049;DHT22;12250;50.956;4.746;2023-05-09T14:55:14;15.60;99.90
24049;DHT22;12250;50.956;4.746;2023-05-09T14:57:39;15.50;99.90
24049;DHT22;12250;50.956;4.746;2023-05-09T15:00:05;15.50;99.90
24049;DHT22;12250;50.956;4.746;2023-05-09T15:02:31;15.50;99.90
24049;DHT22;12250;50.956;4.746;2023-05-09T15:04:57;15.50;99.90
24049;DHT22;12250;50.956;4.746;2023-05-09T15:07:22;15.50;99.90
24049;DHT22;12250;50.956;4.746;2023-05-09T15:09:48;15.50;99.90
24049;DHT22;12250;50.956;4.746;2023-05-09T15:12:14;15.60;99.90
24049;DHT22;12250;50.956;4.746;2023-05-09T15:14:40;15.50;99.90
24049;DHT22;12250;50.956;4.746;2023-05-09T15:17:06;15.60;99.90
24049;DHT22;12250;50.956;4.746;2023-05-09T15:19:32;15.70;99.90
24049;DHT22;12250;50.956;4.746;2023-05-09T15:22:00;15.70;99.90
24049;DHT22;12250;50.956;4.746;2023-05-09T15:24:26;15.60;99.90
24049;DHT22;12250;50.956;4.746;2023-05-09T15:26:52;15.50;99.90
24049;DHT22;12250;50.956;4.746;2023-05-09T15:29:18;15.40;99.90
24049;DHT22;12250;50.956;4.746;2023-05-09T15:31:44;15.30;99.90
24049;DHT22;12250;50.956;4.746;2023-05-09T15:34:10;15.20;99.90
24049;DHT22;12250;50.956;4.746;2023-05-09T15:36:36;15.10;99.90
24049;DHT22;12250;50.956;4.746;2023-05-09T15:39:01;15.00;99.90
24049;DHT22;12250;50.956;4.746;2023-05-09T15:41:29;15.00;99.90
24049;DHT22;12250;50.956;4.746;2023-05-09T15:43:56;15.00;99.90
24049;DHT22;12250;50.956;4.746;2023-05-09T15:46:22;15.00;99.90